Linch, Wyoming
Current Conditions -  °F | °C
As of 10:53 PM on Saturday 25 Oct 2014 (Local Time) from KCPR Reporting Station
Clear Clear  
Wind Chill: 63°   Ceiling: Unl
Heat Index: 63°   Visibility: 10mi
Dew Point: 26°   Wind: 20mph
Humidity: 25%   Direction: 200°SSW
Pressure: 29.88"   Gusts: 28mph
Location:  43.61°N, 106.2°W
Report Text: KCPR 260453Z AUTO 20017G24KT 10SM CLR 17/M03 A2988 RMK AO2 SLP056 T01721033
Loading
Personal Weather Stations






























Interactive Weather Map
Tropical Storm Tracking
New forecast layout! Learn more

10-Day Weather Forecast

Advertisements
Track Severe Weather on mobile